Time;durP1;ratioP1;P1;durP2;ratioP2;P2;SDS_P1;SDS_P2;PMS_P1;PMS_P2;Temp;Humidity;BMP_temperature;BMP_pressure;BME280_temperature;BME280_humidity;BME280_pressure;Samples;Min_cycle;Max_cycle;Signal;HPM_P1;HPM_P2
2023/10/24 00:00:52;;;;;;;0.50;0.50;;;;;;;11.23;86.21;96763.53;5006592;28;20505;-73
2023/10/24 00:03:20;;;;;;;0.50;0.50;;;;;;;11.19;86.51;96759.69;5003275;28;20046;-73
2023/10/24 00:05:51;;;;;;;0.40;0.40;;;;;;;11.21;86.41;96765.59;5014230;28;20469;-72
2023/10/24 00:08:18;;;;;;;0.40;0.40;;;;;;;11.21;86.53;96762.13;5005082;28;20093;-72
2023/10/24 00:10:46;;;;;;;0.47;0.47;;;;;;;11.23;86.19;96755.50;5002668;28;20050;-72
2023/10/24 00:13:14;;;;;;;0.30;0.30;;;;;;;11.21;86.38;96752.22;5014262;28;20497;-72
2023/10/24 00:15:42;;;;;;;0.40;0.40;;;;;;;11.16;86.58;96751.28;5007568;28;20042;-72
2023/10/24 00:18:13;;;;;;;0.52;0.52;;;;;;;11.15;86.56;96746.97;5011642;28;20038;-72
2023/10/24 00:20:41;;;;;;;0.32;0.32;;;;;;;11.14;86.46;96743.47;5011792;28;20124;-72
2023/10/24 00:23:09;;;;;;;0.22;0.22;;;;;;;11.10;86.66;96744.16;5013934;28;20042;-72
2023/10/24 00:25:36;;;;;;;0.20;0.20;;;;;;;11.02;87.46;96746.03;5009415;28;20060;-72
2023/10/24 00:28:04;;;;;;;0.43;0.43;;;;;;;10.93;87.55;96742.00;5014006;28;20093;-72
2023/10/24 00:30:32;;;;;;;0.50;0.50;;;;;;;10.96;87.61;96743.44;5005544;28;20109;-72
2023/10/24 00:32:59;;;;;;;0.40;0.40;;;;;;;10.92;88.31;96739.56;4998021;28;20046;-72
2023/10/24 00:35:29;;;;;;;0.30;0.30;;;;;;;10.92;87.98;96737.69;5006716;28;20058;-73
2023/10/24 00:37:57;;;;;;;0.40;0.40;;;;;;;10.94;87.99;96745.50;5024664;28;20462;-72
2023/10/24 00:40:24;;;;;;;0.30;0.30;;;;;;;10.80;88.70;96744.78;5003773;28;20145;-74
2023/10/24 00:42:52;;;;;;;0.43;0.43;;;;;;;10.81;89.39;96722.38;5010425;28;20049;-74
2023/10/24 00:45:20;;;;;;;0.35;0.35;;;;;;;10.84;89.15;96721.97;4999380;28;20050;-73
2023/10/24 00:47:47;;;;;;;0.40;0.40;;;;;;;10.83;88.71;96715.00;5010295;28;20132;-74
2023/10/24 00:50:16;;;;;;;0.40;0.40;;;;;;;10.82;88.93;96715.19;5012140;28;20049;-74
2023/10/24 00:52:45;;;;;;;0.60;0.40;;;;;;;10.82;88.86;96717.88;4984138;28;20049;-74
2023/10/24 00:55:16;;;;;;;0.20;0.20;;;;;;;10.84;88.08;96723.81;5013224;28;20099;-74
2023/10/24 00:57:45;;;;;;;0.32;0.32;;;;;;;10.81;88.28;96729.56;5008569;28;20042;-74
2023/10/24 01:00:13;;;;;;;0.60;0.40;;;;;;;10.80;88.12;96722.59;4999188;28;20056;-75
2023/10/24 01:02:41;;;;;;;0.30;0.30;;;;;;;10.84;87.20;96726.47;5026434;28;20109;-74
2023/10/24 01:05:10;;;;;;;0.40;0.40;;;;;;;10.93;86.78;96730.50;5010426;28;20095;-74
2023/10/24 01:07:38;;;;;;;0.30;0.30;;;;;;;11.00;85.84;96725.94;5006348;28;20569;-74
2023/10/24 01:10:09;;;;;;;0.40;0.35;;;;;;;11.06;85.93;96724.25;5009656;28;20124;-74
2023/10/24 01:12:37;;;;;;;0.35;0.35;;;;;;;11.08;85.06;96723.00;4987655;28;20133;-74
2023/10/24 01:15:06;;;;;;;0.30;0.30;;;;;;;11.11;85.04;96717.19;5000959;28;20128;-75
2023/10/24 01:17:34;;;;;;;0.32;0.32;;;;;;;11.13;84.47;96699.09;5011866;28;20048;-74
2023/10/24 01:20:02;;;;;;;0.30;0.30;;;;;;;11.17;84.54;96707.50;5013189;28;20046;-74
2023/10/24 01:22:31;;;;;;;0.22;0.22;;;;;;;11.20;84.47;96699.88;5012912;28;20141;-74
2023/10/24 01:24:58;;;;;;;0.30;0.30;;;;;;;11.27;84.32;96697.13;5004752;28;20045;-74
2023/10/24 01:27:26;;;;;;;0.30;0.30;;;;;;;11.24;84.26;96698.38;5014315;28;20679;-74
2023/10/24 01:29:54;;;;;;;0.32;0.32;;;;;;;11.25;83.38;96685.84;5009811;28;20433;-73
2023/10/24 01:32:30;;;;;;;0.30;0.30;;;;;;;11.26;83.63;96693.66;5013512;28;20498;-73
2023/10/24 01:34:58;;;;;;;0.30;0.30;;;;;;;11.26;83.41;96692.81;5011551;28;20050;-74
2023/10/24 01:37:25;;;;;;;0.20;0.20;;;;;;;11.26;83.35;96704.31;5012499;28;20133;-73
2023/10/24 01:39:54;;;;;;;0.30;0.30;;;;;;;11.25;83.46;96712.56;4989777;28;20528;-73
2023/10/24 01:42:22;;;;;;;0.40;0.40;;;;;;;11.22;83.16;96697.78;5010857;28;20037;-74
2023/10/24 01:44:50;;;;;;;0.22;0.22;;;;;;;11.23;83.14;96696.75;4997508;28;20042;-73
2023/10/24 01:47:18;;;;;;;0.52;0.43;;;;;;;11.25;83.05;96700.03;5016832;28;20046;-74
2023/10/24 01:49:45;;;;;;;0.30;0.30;;;;;;;11.26;83.03;96704.31;5012444;28;20038;-73
2023/10/24 01:52:13;;;;;;;0.28;0.28;;;;;;;11.33;82.30;96709.59;5002304;28;20077;-73
2023/10/24 01:54:41;;;;;;;0.20;0.20;;;;;;;11.32;82.29;96727.47;5007617;28;20046;-73
2023/10/24 01:57:11;;;;;;;0.30;0.30;;;;;;;11.45;81.24;96728.38;5014508;28;20050;-72
2023/10/24 01:59:39;;;;;;;0.45;0.45;;;;;;;11.43;81.58;96752.66;5019548;28;20045;-73
2023/10/24 02:02:07;;;;;;;0.20;0.20;;;;;;;11.44;81.50;96761.47;4999813;28;20144;-74
2023/10/24 02:04:35;;;;;;;0.35;0.35;;;;;;;11.39;81.77;96765.66;5011572;28;20125;-74
2023/10/24 02:07:04;;;;;;;0.70;0.70;;;;;;;11.37;81.97;96750.88;5013298;28;20413;-74
2023/10/24 02:09:31;;;;;;;0.38;0.38;;;;;;;11.36;81.96;96755.41;4999148;28;20050;-74
2023/10/24 02:12:00;;;;;;;0.32;0.32;;;;;;;11.38;81.93;96752.50;4993060;28;20076;-74
2023/10/24 02:14:29;;;;;;;0.30;0.30;;;;;;;11.44;81.43;96734.75;5001735;28;20130;-75
2023/10/24 02:16:57;;;;;;;0.52;0.30;;;;;;;11.42;81.65;96729.63;5001967;28;20116;-75
2023/10/24 02:19:26;;;;;;;0.30;0.30;;;;;;;11.45;81.38;96725.72;5002399;28;20117;-75
2023/10/24 02:21:53;;;;;;;0.40;0.40;;;;;;;11.46;81.15;96716.66;5016194;28;20038;-75
2023/10/24 02:24:21;;;;;;;0.30;0.30;;;;;;;11.45;81.76;96701.66;5006834;28;20100;-75
2023/10/24 02:26:49;;;;;;;0.50;0.50;;;;;;;11.45;81.03;96685.63;5003937;28;20046;-75
2023/10/24 02:29:17;;;;;;;0.30;0.30;;;;;;;11.47;81.42;96678.22;5010826;28;20141;-75
2023/10/24 02:31:46;;;;;;;0.30;0.30;;;;;;;11.50;80.31;96678.59;5025906;28;20038;-75
2023/10/24 02:34:15;;;;;;;0.25;0.25;;;;;;;11.59;80.08;96684.47;5001727;28;20096;-74
2023/10/24 02:36:43;;;;;;;0.30;0.30;;;;;;;11.53;80.46;96690.69;5001731;28;20076;-73
2023/10/24 02:39:10;;;;;;;0.30;0.30;;;;;;;11.47;80.48;96675.53;4991439;28;20046;-72
2023/10/24 02:41:38;;;;;;;0.40;0.40;;;;;;;11.47;80.42;96662.19;5012193;28;20509;-72
2023/10/24 02:44:06;;;;;;;0.28;0.20;;;;;;;11.48;80.15;96663.81;5004662;28;20109;-72
2023/10/24 02:46:34;;;;;;;0.50;0.38;;;;;;;11.50;80.36;96659.91;5004721;28;20042;-72
2023/10/24 02:49:03;;;;;;;0.30;0.30;;;;;;;11.47;80.20;96660.31;4978468;28;20037;-72
2023/10/24 02:51:30;;;;;;;0.60;0.60;;;;;;;11.47;80.36;96656.84;5009845;28;20141;-71
2023/10/24 02:53:58;;;;;;;0.43;0.30;;;;;;;11.43;80.35;96661.81;4994761;28;20497;-72
2023/10/24 02:56:26;;;;;;;0.32;0.32;;;;;;;11.49;79.82;96663.59;5007510;28;20136;-72
2023/10/24 02:58:53;;;;;;;0.38;0.38;;;;;;;11.43;80.52;96669.00;5009416;28;20040;-72
2023/10/24 03:01:21;;;;;;;0.30;0.30;;;;;;;11.35;80.54;96662.94;5002843;28;20049;-72
2023/10/24 03:03:49;;;;;;;0.40;0.40;;;;;;;11.36;80.56;96666.41;5009486;28;20121;-72
2023/10/24 03:06:19;;;;;;;0.30;0.30;;;;;;;11.38;80.41;96669.69;4993271;28;20100;-72
2023/10/24 03:08:48;;;;;;;0.40;0.38;;;;;;;11.35;80.58;96662.94;5007136;28;20049;-72
2023/10/24 03:11:21;;;;;;;0.20;0.20;;;;;;;11.32;80.92;96659.88;4989915;28;20074;-72
2023/10/24 03:13:49;;;;;;;0.30;0.30;;;;;;;11.29;80.57;96661.16;5006267;28;20046;-72
2023/10/24 03:16:16;;;;;;;0.40;0.40;;;;;;;11.34;80.43;96669.31;5003437;28;20042;-71
2023/10/24 03:18:44;;;;;;;0.38;0.32;;;;;;;11.31;80.31;96667.09;5008175;28;20065;-73
2023/10/24 03:21:12;;;;;;;0.20;0.20;;;;;;;11.32;80.53;96662.53;5004590;28;20084;-74
2023/10/24 03:23:41;;;;;;;0.35;0.35;;;;;;;11.32;80.34;96658.00;4997186;28;20825;-72
2023/10/24 03:26:09;;;;;;;0.30;0.30;;;;;;;11.35;80.62;96654.09;5012749;28;20490;-72
2023/10/24 03:28:37;;;;;;;0.40;0.40;;;;;;;11.38;80.82;96649.13;5010271;28;20093;-73
2023/10/24 03:31:06;;;;;;;0.40;0.40;;;;;;;11.36;80.53;96653.06;5028131;28;20046;-73
2023/10/24 03:33:34;;;;;;;0.40;0.40;;;;;;;11.35;80.67;96654.91;5008938;28;20500;-73
2023/10/24 03:36:02;;;;;;;0.30;0.30;;;;;;;11.40;80.70;96648.91;4999292;28;20154;-73
2023/10/24 03:38:30;;;;;;;0.30;0.30;;;;;;;11.42;80.94;96640.69;5010671;28;20501;-73
2023/10/24 03:40:59;;;;;;;0.80;0.35;;;;;;;11.42;80.38;96644.13;5002535;28;20094;-73
2023/10/24 03:43:26;;;;;;;0.30;0.30;;;;;;;11.42;80.60;96638.78;5003736;28;20079;-73
2023/10/24 03:45:54;;;;;;;0.22;0.22;;;;;;;11.45;80.11;96637.53;5002322;28;20046;-73
2023/10/24 03:48:22;;;;;;;0.40;0.40;;;;;;;11.49;80.18;96631.53;5008892;28;20073;-73
2023/10/24 03:50:50;;;;;;;0.30;0.30;;;;;;;11.51;80.30;96626.78;4996234;28;20046;-73
2023/10/24 03:53:17;;;;;;;0.30;0.30;;;;;;;11.53;79.70;96630.03;4999756;28;20058;-73
2023/10/24 03:55:55;;;;;;;0.22;0.22;;;;;;;11.57;79.91;96628.56;5011178;28;20070;-73
2023/10/24 03:58:24;;;;;;;0.80;0.80;;;;;;;11.69;79.28;96640.13;5012723;28;20674;-72
2023/10/24 04:00:52;;;;;;;0.73;0.73;;;;;;;11.62;79.09;96631.38;5009197;28;20454;-72
2023/10/24 04:03:20;;;;;;;0.30;0.30;;;;;;;11.67;78.53;96622.66;5006392;28;20125;-74
2023/10/24 04:05:49;;;;;;;0.20;0.20;;;;;;;11.64;78.63;96631.13;5014574;28;20053;-74
2023/10/24 04:08:17;;;;;;;0.30;0.30;;;;;;;11.63;79.03;96624.16;5012963;28;20103;-74
2023/10/24 04:10:44;;;;;;;0.22;0.22;;;;;;;11.65;78.96;96624.75;5012304;28;20044;-74
2023/10/24 04:13:12;;;;;;;0.28;0.28;;;;;;;11.62;79.27;96630.56;5010020;28;20096;-74
2023/10/24 04:15:41;;;;;;;0.40;0.40;;;;;;;11.63;79.09;96643.69;5003120;28;20536;-74
2023/10/24 04:18:10;;;;;;;0.40;0.40;;;;;;;11.53;79.24;96648.72;5003227;28;20052;-72
2023/10/24 04:20:41;;;;;;;0.55;0.40;;;;;;;11.46;79.70;96650.69;5007723;28;20108;-73
2023/10/24 04:23:13;;;;;;;0.40;0.35;;;;;;;11.41;79.80;96653.22;5011623;28;20046;-72
2023/10/24 04:25:41;;;;;;;0.32;0.32;;;;;;;11.40;79.50;96659.59;5012949;28;20089;-73
2023/10/24 04:28:09;;;;;;;0.30;0.30;;;;;;;11.38;79.34;96657.16;5012587;28;20050;-73
2023/10/24 04:30:39;;;;;;;0.20;0.20;;;;;;;11.39;79.45;96660.63;5012141;28;20493;-73
2023/10/24 04:33:08;;;;;;;0.75;0.75;;;;;;;11.33;79.85;96656.97;5013716;28;20433;-73
2023/10/24 04:35:41;;;;;;;0.52;0.50;;;;;;;11.34;79.55;96649.78;5011579;28;20139;-73
2023/10/24 04:38:09;;;;;;;0.50;0.50;;;;;;;11.34;79.43;96649.78;5014197;28;20056;-72
2023/10/24 04:40:40;;;;;;;0.30;0.30;;;;;;;11.38;79.17;96641.13;5011987;28;20656;-73
2023/10/24 04:43:08;;;;;;;0.30;0.30;;;;;;;11.38;79.32;96637.63;5009147;28;20049;-73
2023/10/24 04:45:36;;;;;;;0.40;0.40;;;;;;;11.40;79.17;96633.69;5013158;28;20038;-73
2023/10/24 04:48:04;;;;;;;0.45;0.40;;;;;;;11.43;79.01;96644.94;5013518;28;20121;-73
2023/10/24 04:50:36;;;;;;;0.77;0.77;;;;;;;11.44;79.02;96641.25;5013315;28;20114;-73
2023/10/24 04:53:04;;;;;;;0.45;0.40;;;;;;;11.48;78.35;96640.59;5006671;28;20046;-73
2023/10/24 04:55:31;;;;;;;0.30;0.30;;;;;;;11.48;78.39;96647.78;5013053;28;20531;-73
2023/10/24 04:57:59;;;;;;;0.30;0.30;;;;;;;11.46;78.58;96634.66;5012509;28;20061;-74
2023/10/24 05:00:27;;;;;;;0.22;0.22;;;;;;;11.46;78.50;96645.34;5013015;28;20060;-73
2023/10/24 05:02:55;;;;;;;0.40;0.40;;;;;;;11.45;78.99;96637.53;5013607;28;20049;-73
2023/10/24 05:05:23;;;;;;;0.40;0.40;;;;;;;11.39;79.19;96626.72;5012661;28;20037;-73
2023/10/24 05:07:52;;;;;;;0.40;0.40;;;;;;;11.40;78.81;96630.22;5017121;28;20058;-73
2023/10/24 05:10:20;;;;;;;0.30;0.30;;;;;;;11.40;79.10;96627.53;5022006;28;20052;-73
2023/10/24 05:12:48;;;;;;;0.40;0.40;;;;;;;11.40;79.08;96625.69;5021842;28;20046;-73
2023/10/24 05:15:16;;;;;;;0.30;0.30;;;;;;;11.40;78.89;96632.88;5005635;28;20050;-73
2023/10/24 05:17:43;;;;;;;0.85;0.52;;;;;;;11.38;79.14;96624.25;5007609;28;20073;-73
2023/10/24 05:20:16;;;;;;;0.40;0.40;;;;;;;11.34;79.17;96618.53;5009004;28;20108;-73
2023/10/24 05:22:44;;;;;;;0.40;0.40;;;;;;;11.29;79.30;96614.94;4994333;28;20049;-73
2023/10/24 05:25:13;;;;;;;0.30;0.30;;;;;;;11.34;79.41;96615.06;4997394;28;20054;-73
2023/10/24 05:27:41;;;;;;;0.30;0.30;;;;;;;11.34;79.08;96610.53;5005106;28;20038;-73
2023/10/24 05:30:10;;;;;;;0.75;0.40;;;;;;;11.33;79.34;96608.91;5011330;28;20046;-73
2023/10/24 05:32:38;;;;;;;0.22;0.22;;;;;;;11.31;79.32;96611.00;5012432;28;20169;-73
2023/10/24 05:35:06;;;;;;;0.32;0.32;;;;;;;11.31;79.49;96604.84;5011945;28;20497;-73
2023/10/24 05:37:34;;;;;;;0.60;0.60;;;;;;;11.34;79.53;96601.69;5011172;28;20050;-73
2023/10/24 05:40:02;;;;;;;0.40;0.40;;;;;;;11.34;79.16;96610.53;5012357;28;20069;-73
2023/10/24 05:42:31;;;;;;;0.50;0.50;;;;;;;11.37;79.06;96606.59;5001436;28;20108;-73
2023/10/24 05:44:59;;;;;;;0.30;0.30;;;;;;;11.34;79.23;96607.03;5008865;28;20045;-73
2023/10/24 05:47:26;;;;;;;0.40;0.40;;;;;;;11.35;79.37;96604.16;4997789;28;20060;-73
2023/10/24 05:49:54;;;;;;;0.30;0.30;;;;;;;11.33;79.60;96600.88;5008590;28;20053;-72
2023/10/24 05:52:22;;;;;;;0.35;0.35;;;;;;;11.39;79.45;96605.34;5001563;28;20082;-73
2023/10/24 05:54:49;;;;;;;0.30;0.30;;;;;;;11.39;79.74;96604.53;5010281;28;20050;-73
2023/10/24 05:57:17;;;;;;;0.40;0.35;;;;;;;11.43;79.45;96589.66;5012723;28;20409;-73
2023/10/24 05:59:46;;;;;;;0.43;0.43;;;;;;;11.43;79.14;96581.66;5002340;28;20074;-73
2023/10/24 06:02:15;;;;;;;0.30;0.30;;;;;;;11.42;79.16;96590.69;5005713;28;20050;-73
2023/10/24 06:04:43;;;;;;;0.30;0.30;;;;;;;11.48;78.93;96592.50;5014867;28;20046;-74
2023/10/24 06:07:11;;;;;;;0.60;0.60;;;;;;;11.49;79.19;96595.97;5024598;28;20049;-73
2023/10/24 06:09:38;;;;;;;0.25;0.25;;;;;;;11.42;79.26;96605.94;5013730;28;20065;-72
2023/10/24 06:12:08;;;;;;;0.32;0.32;;;;;;;11.43;79.02;96615.56;5007493;28;20133;-73
2023/10/24 06:14:35;;;;;;;0.30;0.30;;;;;;;11.43;79.15;96618.22;5010536;28;20112;-72
2023/10/24 06:17:04;;;;;;;0.30;0.30;;;;;;;11.39;79.10;96617.88;5011910;28;20501;-72
2023/10/24 06:19:33;;;;;;;0.30;0.30;;;;;;;11.39;79.12;96615.22;4986743;28;20137;-73
2023/10/24 06:22:01;;;;;;;0.40;0.40;;;;;;;11.43;79.05;96610.22;5011080;28;20048;-72
2023/10/24 06:24:28;;;;;;;0.30;0.30;;;;;;;11.44;79.12;96611.84;5010866;28;20056;-73
2023/10/24 06:26:56;;;;;;;0.38;0.30;;;;;;;11.43;79.04;96595.00;5007052;28;20050;-72
2023/10/24 06:29:23;;;;;;;0.32;0.32;;;;;;;11.45;78.74;96598.28;5010366;28;20505;-73
2023/10/24 06:31:51;;;;;;;0.50;0.50;;;;;;;11.46;78.82;96597.25;5011075;28;20045;-73
2023/10/24 06:34:20;;;;;;;0.40;0.30;;;;;;;11.47;78.98;96593.53;5011147;28;20037;-73
2023/10/24 06:36:48;;;;;;;0.55;0.45;;;;;;;11.50;78.77;96598.44;5009774;28;20052;-73
2023/10/24 06:39:15;;;;;;;0.35;0.35;;;;;;;11.52;78.74;96584.84;5010639;28;20050;-73
2023/10/24 06:41:45;;;;;;;0.25;0.25;;;;;;;11.51;78.70;96568.00;5006340;28;20050;-73
2023/10/24 06:44:22;;;;;;;0.30;0.30;;;;;;;11.55;78.79;96568.34;5005601;28;20049;-72
2023/10/24 06:46:50;;;;;;;0.30;0.30;;;;;;;11.56;78.77;96557.44;5011905;28;20041;-73
2023/10/24 06:49:17;;;;;;;0.50;0.50;;;;;;;11.60;78.35;96547.94;5010876;28;20057;-73
2023/10/24 06:51:47;;;;;;;0.45;0.45;;;;;;;11.64;78.37;96548.28;5010341;28;20145;-72
2023/10/24 06:54:14;;;;;;;0.30;0.30;;;;;;;11.73;78.50;96528.22;5005984;28;20054;-72
2023/10/24 06:56:42;;;;;;;0.38;0.38;;;;;;;11.75;78.10;96531.50;5009511;28;20054;-72
2023/10/24 06:59:09;;;;;;;0.28;0.28;;;;;;;11.74;78.00;96522.63;5011520;28;20076;-72
2023/10/24 07:01:37;;;;;;;0.40;0.40;;;;;;;11.78;77.93;96515.00;5010215;28;20048;-72
2023/10/24 07:04:05;;;;;;;0.43;0.40;;;;;;;11.83;77.46;96504.44;5012490;28;20063;-72
2023/10/24 07:06:33;;;;;;;0.40;0.40;;;;;;;11.87;77.43;96500.25;5011042;28;20070;-72
2023/10/24 07:09:02;;;;;;;0.30;0.30;;;;;;;11.91;77.55;96497.94;5011404;28;20057;-72
2023/10/24 07:11:30;;;;;;;0.40;0.30;;;;;;;11.89;77.22;96494.69;5010890;28;20053;-73
2023/10/24 07:13:57;;;;;;;0.38;0.38;;;;;;;11.89;77.50;96490.16;5010655;28;20042;-73
2023/10/24 07:16:25;;;;;;;0.50;0.40;;;;;;;11.91;77.51;96488.06;5000448;28;20054;-73
2023/10/24 07:18:53;;;;;;;0.40;0.40;;;;;;;11.99;77.44;96490.41;5004125;28;20122;-73
2023/10/24 07:21:20;;;;;;;0.43;0.30;;;;;;;12.00;77.82;96492.03;5005467;28;20164;-73
2023/10/24 07:23:48;;;;;;;0.28;0.25;;;;;;;12.05;77.81;96489.47;5003896;28;20050;-72
2023/10/24 07:26:18;;;;;;;0.30;0.30;;;;;;;11.98;77.71;96483.41;5010736;28;20129;-72
2023/10/24 07:28:46;;;;;;;0.40;0.40;;;;;;;12.03;78.02;96499.59;5013367;28;20494;-72
2023/10/24 07:31:14;;;;;;;0.60;0.60;;;;;;;12.12;77.38;96502.75;5015182;28;20077;-73
2023/10/24 07:33:46;;;;;;;0.60;0.45;;;;;;;12.04;77.50;96509.22;5014433;28;20076;-72
2023/10/24 07:36:14;;;;;;;0.30;0.30;;;;;;;12.03;77.61;96512.16;5014220;28;20050;-72
2023/10/24 07:38:41;;;;;;;0.40;0.40;;;;;;;11.94;78.35;96518.88;5016160;28;20490;-72
2023/10/24 07:41:09;;;;;;;0.20;0.20;;;;;;;11.94;78.08;96524.25;5018031;28;20122;-73
2023/10/24 07:43:38;;;;;;;0.40;0.40;;;;;;;11.86;78.69;96520.00;5018734;28;20052;-72
2023/10/24 07:46:06;;;;;;;0.38;0.38;;;;;;;11.83;78.64;96517.81;5015479;28;20050;-72
2023/10/24 07:48:33;;;;;;;0.32;0.32;;;;;;;11.83;78.79;96512.47;5018817;28;20038;-72
2023/10/24 07:51:02;;;;;;;0.40;0.40;;;;;;;11.80;78.99;96512.94;5015995;28;20054;-72
2023/10/24 07:53:34;;;;;;;0.30;0.30;;;;;;;11.82;78.70;96502.81;5012636;28;20050;-72
2023/10/24 07:56:04;;;;;;;0.40;0.40;;;;;;;11.87;78.56;96496.78;5015819;28;20125;-73
2023/10/24 07:58:32;;;;;;;0.30;0.30;;;;;;;11.92;78.12;96491.56;5013926;28;20052;-73
2023/10/24 08:01:01;;;;;;;0.32;0.32;;;;;;;11.97;78.01;96492.50;5013651;28;20513;-72
2023/10/24 08:03:29;;;;;;;0.40;0.40;;;;;;;12.05;77.75;96488.66;5013440;28;20050;-72
2023/10/24 08:05:56;;;;;;;0.30;0.30;;;;;;;12.06;77.60;96496.44;5015315;28;20046;-72
2023/10/24 08:08:24;;;;;;;0.30;0.30;;;;;;;12.12;77.81;96489.38;5013744;28;20056;-73
2023/10/24 08:10:52;;;;;;;0.22;0.22;;;;;;;12.17;77.64;96480.63;5013644;28;20041;-73
2023/10/24 08:13:20;;;;;;;0.22;0.22;;;;;;;12.22;77.49;96497.63;5014253;28;20501;-72
2023/10/24 08:15:50;;;;;;;0.85;0.85;;;;;;;12.27;77.01;96523.69;5014081;28;20576;-72
2023/10/24 08:18:19;;;;;;;0.35;0.35;;;;;;;12.36;76.92;96512.41;5013801;28;20521;-73
2023/10/24 08:20:47;;;;;;;0.40;0.30;;;;;;;12.34;76.96;96513.69;5013901;28;20052;-72
2023/10/24 08:23:15;;;;;;;0.25;0.25;;;;;;;12.33;77.07;96518.25;5013901;28;20117;-73
2023/10/24 08:25:42;;;;;;;0.30;0.30;;;;;;;12.37;76.58;96527.41;5013538;28;20074;-72
2023/10/24 08:28:10;;;;;;;0.30;0.30;;;;;;;12.42;76.85;96516.03;5013729;28;20056;-72
2023/10/24 08:30:38;;;;;;;0.25;0.25;;;;;;;12.48;76.44;96528.47;5013130;28;20065;-72
2023/10/24 08:33:07;;;;;;;0.30;0.30;;;;;;;12.54;76.47;96537.44;5013932;28;20071;-72
2023/10/24 08:35:36;;;;;;;0.47;0.47;;;;;;;12.58;76.59;96542.06;5013478;28;20129;-73
2023/10/24 08:38:04;;;;;;;0.45;0.45;;;;;;;12.63;76.19;96544.06;5013111;28;20505;-73
2023/10/24 08:40:32;;;;;;;0.40;0.40;;;;;;;12.69;76.13;96551.97;5032223;23;20245;-73
2023/10/24 08:43:01;;;;;;;0.30;0.30;;;;;;;12.77;75.66;96556.19;5041079;28;20046;-73
2023/10/24 08:45:29;;;;;;;0.30;0.30;;;;;;;12.76;75.61;96560.72;5050983;28;20048;-73
2023/10/24 08:47:58;;;;;;;0.35;0.35;;;;;;;12.77;75.62;96556.19;5036555;28;20051;-73
2023/10/24 08:50:26;;;;;;;0.35;0.35;;;;;;;12.80;75.68;96561.03;5048274;28;20434;-72
2023/10/24 08:52:55;;;;;;;0.43;0.30;;;;;;;12.83;75.15;96571.28;5036135;28;20080;-73
2023/10/24 08:55:23;;;;;;;0.20;0.20;;;;;;;12.82;75.29;96572.34;5044834;28;20499;-73
2023/10/24 08:57:52;;;;;;;0.40;0.40;;;;;;;12.84;75.55;96567.56;5050082;28;20045;-73
2023/10/24 09:00:19;;;;;;;0.30;0.30;;;;;;;12.87;75.57;96562.53;5046282;28;20092;-73
2023/10/24 09:02:47;;;;;;;0.35;0.30;;;;;;;12.88;75.51;96547.28;5042454;28;20099;-73
2023/10/24 09:05:15;;;;;;;0.30;0.30;;;;;;;12.90;75.18;96544.38;5042044;28;20069;-73
2023/10/24 09:07:43;;;;;;;0.40;0.40;;;;;;;12.92;75.34;96524.34;5042977;28;20040;-73
2023/10/24 09:10:12;;;;;;;0.30;0.30;;;;;;;12.93;74.98;96507.25;5033996;28;20079;-73
2023/10/24 09:12:40;;;;;;;0.25;0.25;;;;;;;12.94;74.82;96524.13;5044113;28;20124;-73
2023/10/24 09:15:09;;;;;;;0.40;0.40;;;;;;;12.98;74.76;96525.28;5041735;28;20045;-72
2023/10/24 09:17:37;;;;;;;0.40;0.40;;;;;;;12.97;74.76;96524.47;5037715;28;20640;-73
2023/10/24 09:20:06;;;;;;;0.57;0.57;;;;;;;13.00;74.52;96517.81;5025418;28;20049;-73
2023/10/24 09:22:35;;;;;;;0.20;0.20;;;;;;;13.03;74.49;96507.44;5042897;28;20037;-72
2023/10/24 09:25:04;;;;;;;0.40;0.40;;;;;;;13.02;74.73;96516.53;5045583;28;20049;-73
2023/10/24 09:27:33;;;;;;;0.30;0.30;;;;;;;13.02;74.49;96513.03;5042840;28;20535;-73
2023/10/24 09:30:09;;;;;;;0.25;0.25;;;;;;;13.06;74.34;96519.56;5046620;28;20057;-72
2023/10/24 09:32:39;;;;;;;0.30;0.30;;;;;;;13.07;74.30;96505.13;5051729;28;20064;-72
2023/10/24 09:35:07;;;;;;;0.32;0.32;;;;;;;13.08;74.63;96485.31;5048830;28;20051;-72
2023/10/24 09:37:39;;;;;;;0.30;0.30;;;;;;;13.11;74.49;96480.28;5055955;28;20049;-73
2023/10/24 09:40:08;;;;;;;0.40;0.40;;;;;;;13.09;74.18;96474.34;5054206;28;20094;-73
2023/10/24 09:42:40;;;;;;;0.32;0.32;;;;;;;13.13;74.54;96472.81;5044898;28;20045;-75
2023/10/24 09:45:09;;;;;;;0.43;0.43;;;;;;;13.18;74.52;96461.44;5049333;28;20071;-73
2023/10/24 09:47:37;;;;;;;0.30;0.30;;;;;;;13.19;74.22;96469.22;5045993;28;20151;-73
2023/10/24 09:50:10;;;;;;;0.28;0.28;;;;;;;13.20;74.06;96464.66;5037709;28;20096;-73
2023/10/24 09:52:39;;;;;;;0.45;0.40;;;;;;;13.21;73.84;96459.06;5035541;28;20049;-73
2023/10/24 09:55:08;;;;;;;0.30;0.30;;;;;;;13.23;74.13;96464.19;5042186;28;20520;-73
2023/10/24 09:57:37;;;;;;;0.50;0.50;;;;;;;13.25;73.92;96474.69;5045231;28;20045;-73
2023/10/24 10:00:10;;;;;;;0.22;0.22;;;;;;;13.22;74.11;96471.41;5038176;28;20034;-73
2023/10/24 10:02:44;;;;;;;0.30;0.30;;;;;;;13.22;74.12;96479.47;5042020;28;20403;-73
2023/10/24 10:05:13;;;;;;;0.28;0.28;;;;;;;13.23;74.21;96473.03;5048472;28;20052;-74
2023/10/24 10:07:42;;;;;;;0.32;0.30;;;;;;;13.23;74.27;96473.03;5042522;28;20581;-75
2023/10/24 10:10:11;;;;;;;0.30;0.30;;;;;;;13.25;74.61;96482.72;5046997;28;20115;-73
2023/10/24 10:12:41;;;;;;;0.30;0.30;;;;;;;13.25;74.48;96483.53;5043320;28;20495;-73
2023/10/24 10:15:37;;;;;;;0.40;0.30;;;;;;;13.27;74.68;96480.63;5041362;28;20075;-75
2023/10/24 10:18:15;;;;;;;0.35;0.35;;;;;;;13.25;74.89;96491.56;5052676;28;20063;-74
2023/10/24 10:20:57;;;;;;;0.20;0.20;;;;;;;13.22;75.24;96484.00;5024842;28;20045;-74
2023/10/24 10:23:39;;;;;;;0.30;0.30;;;;;;;13.19;75.31;96489.81;5039979;28;20037;-73
2023/10/24 10:26:09;;;;;;;0.30;0.30;;;;;;;13.19;75.20;96487.97;5045862;28;20041;-73
2023/10/24 10:28:48;;;;;;;0.30;0.30;;;;;;;13.18;75.69;96483.66;5046211;28;20082;-74
2023/10/24 10:31:30;;;;;;;0.30;0.30;;;;;;;13.14;75.65;96477.16;5053495;28;20055;-73
2023/10/24 10:34:17;;;;;;;0.40;0.30;;;;;;;13.15;75.60;96486.00;5041615;28;20411;-73
2023/10/24 10:36:54;;;;;;;0.50;0.43;;;;;;;13.13;75.97;96477.38;5049169;28;20048;-73
2023/10/24 10:39:22;;;;;;;0.40;0.40;;;;;;;13.15;75.97;96470.75;5036445;28;20120;-73
2023/10/24 10:41:50;;;;;;;0.30;0.30;;;;;;;13.17;75.79;96468.66;5039504;28;20041;-73
2023/10/24 10:44:40;;;;;;;0.20;0.20;;;;;;;13.14;76.11;96466.44;5039446;28;20097;-73
2023/10/24 10:47:15;;;;;;;0.32;0.32;;;;;;;13.13;76.06;96466.66;5040004;28;20037;-73
2023/10/24 10:49:46;;;;;;;0.20;0.20;;;;;;;13.17;76.41;96465.97;5041846;28;20095;-74
2023/10/24 10:52:28;;;;;;;0.30;0.30;;;;;;;13.22;76.76;96468.75;5037344;28;20091;-74
2023/10/24 10:55:06;;;;;;;0.47;0.47;;;;;;;13.25;77.27;96462.09;5039086;28;20248;-74
2023/10/24 10:57:41;;;;;;;0.35;0.30;;;;;;;13.26;77.18;96469.09;5040485;28;20065;-74
2023/10/24 11:00:14;;;;;;;0.40;0.40;;;;;;;13.27;77.48;96461.88;5049752;28;20069;-75
2023/10/24 11:03:09;;;;;;;0.22;0.22;;;;;;;13.32;77.99;96461.94;5047074;28;20045;-76
2023/10/24 11:05:50;;;;;;;0.45;0.45;;;;;;;13.33;77.47;96458.22;5048085;28;20450;-75
2023/10/24 11:08:23;;;;;;;0.50;0.30;;;;;;;13.31;77.25;96455.75;5046090;28;20033;-74
2023/10/24 11:10:59;;;;;;;0.30;0.30;;;;;;;13.29;78.54;96455.19;5052729;28;20360;-74
2023/10/24 11:13:43;;;;;;;0.40;0.40;;;;;;;13.30;78.82;96453.31;5045831;28;20050;-73
2023/10/24 11:16:13;;;;;;;0.60;0.40;;;;;;;13.25;78.59;96454.06;5055819;28;20041;-74
2023/10/24 11:18:45;;;;;;;0.60;0.32;;;;;;;13.29;78.49;96457.09;5034981;28;20033;-74
2023/10/24 11:21:13;;;;;;;0.30;0.30;;;;;;;13.24;78.19;96452.44;5045098;28;20042;-74
2023/10/24 11:23:43;;;;;;;0.38;0.38;;;;;;;13.20;78.22;96448.59;5045816;28;20037;-73
2023/10/24 11:26:11;;;;;;;0.57;0.40;;;;;;;13.26;78.94;96444.16;5044723;28;20033;-73
2023/10/24 11:28:38;;;;;;;0.40;0.30;;;;;;;13.28;78.97;96450.91;5046719;28;20047;-73
2023/10/24 11:31:21;;;;;;;0.40;0.40;;;;;;;13.22;79.81;96443.81;5052731;28;20045;-73
2023/10/24 11:33:50;;;;;;;0.30;0.30;;;;;;;13.18;79.26;96445.34;5041628;28;20046;-73
2023/10/24 11:36:18;;;;;;;0.30;0.30;;;;;;;13.17;79.10;96436.50;5052238;28;20112;-73
2023/10/24 11:38:46;;;;;;;0.30;0.30;;;;;;;13.17;79.71;96441.03;5042473;28;20080;-73
2023/10/24 11:41:13;;;;;;;0.20;0.20;;;;;;;13.12;79.85;96435.53;5044584;28;20177;-73
2023/10/24 11:43:41;;;;;;;0.40;0.40;;;;;;;13.11;79.72;96431.25;5041905;28;20585;-73